ESGT/THN METAR and TAF weather

Enter ICAO airport designator
Station Type Date Time Source
ESGT METAR 2021/10/24 21:20 UTC NOAA

ESGT 242120Z AUTO 19010KT 9999 BKN035/// 08/05 Q1018


Station Type Date Time Source
ESGT Decoded METAR 2021/10/24 21:20 UTC NOAA

Trollhattan Private , Sweden (ESGT) 58-19N 012-21E
Oct 24, 2021 - 05:20 PM EDT / 2021.10.24 2120 UTC
Wind: from the S (190 degrees) at 12 MPH (10 KT):0
Visibility: greater than 7 mile(s):0
Sky conditions: mostly cloudy
Temperature: 46 F (8 C)
Dew Point: 41 F (5 C)
Relative Humidity: 81%
Pressure (altimeter): 30.06 in. Hg (1018 hPa)
ob: ESGT 242120Z AUTO 19010KT 9999 BKN035/// 08/05 Q1018
cycle: 21

Station Type Date Time Source
ESGT TAF 2016/08/12 05:58 UTC NOAA

TAF ESGT 120430Z 1205/1224 18007KT 9999 FEW030

Example: see airport list